Time;durP1;ratioP1;P1;durP2;ratioP2;P2;SDS_P1;SDS_P2;PMS_P1;PMS_P2;Temp;Humidity;BMP_temperature;BMP_pressure;BME280_temperature;BME280_humidity;BME280_pressure;Samples;Min_cycle;Max_cycle;Signal;HPM_P1;HPM_P2
2021/04/02 00:00:58;;;;;;;3.50;1.30;;;30.00;56.30;;;;;;5070569;28;20026;-70
2021/04/02 00:03:34;;;;;;;2.90;0.90;;;30.10;56.30;;;;;;5064861;28;20039;-68
2021/04/02 00:06:09;;;;;;;2.60;1.00;;;30.60;57.70;;;;;;5068396;28;20044;-73
2021/04/02 00:08:37;;;;;;;2.95;1.20;;;31.00;56.30;;;;;;5078373;28;20051;-74
2021/04/02 00:11:09;;;;;;;4.05;0.88;;;31.00;55.30;;;;;;5063860;28;20028;-71
2021/04/02 00:13:44;;;;;;;4.00;0.80;;;30.90;56.00;;;;;;5072527;28;20123;-74
2021/04/02 00:16:14;;;;;;;3.38;1.00;;;30.50;55.60;;;;;;5073990;28;20023;-75
2021/04/02 00:18:43;;;;;;;1.90;0.70;;;30.40;56.90;;;;;;5060413;28;20060;-75
2021/04/02 00:21:12;;;;;;;2.80;1.10;;;30.70;54.70;;;;;;5073559;28;20327;-75
2021/04/02 00:23:40;;;;;;;2.92;0.80;;;30.90;55.50;;;;;;5077071;28;20032;-73
2021/04/02 00:26:15;;;;;;;3.70;1.05;;;31.30;53.80;;;;;;5071990;28;20029;-69
2021/04/02 00:28:42;;;;;;;;;;;31.30;52.20;;;;;;5075073;28;20032;-74
2021/04/02 00:31:10;;;;;;;2.45;0.80;;;31.60;52.80;;;;;;5074205;28;20312;-74
2021/04/02 00:33:37;;;;;;;4.03;0.70;;;31.20;51.20;;;;;;5083645;28;20386;-74
2021/04/02 00:36:06;;;;;;;2.53;0.65;;;30.40;52.00;;;;;;5073973;28;20024;-72
2021/04/02 00:38:34;;;;;;;2.53;0.85;;;30.80;53.20;;;;;;5076667;28;20020;-74
2021/04/02 00:41:13;;;;;;;1.27;0.50;;;31.30;55.50;;;;;;5072658;28;20053;-73
2021/04/02 00:43:43;;;;;;;3.90;1.15;;;31.90;54.40;;;;;;5079063;28;20066;-73
2021/04/02 00:46:11;;;;;;;4.03;1.00;;;31.80;51.50;;;;;;5074930;28;20058;-71
2021/04/02 00:48:41;;;;;;;1.85;0.73;;;32.10;51.20;;;;;;5074509;28;20053;-74
2021/04/02 00:51:10;;;;;;;3.38;0.77;;;32.20;50.20;;;;;;5071579;28;20385;-71
2021/04/02 00:53:43;;;;;;;5.18;1.05;;;31.60;50.30;;;;;;5083320;28;20043;-72
2021/04/02 00:56:12;;;;;;;2.70;0.80;;;31.90;50.80;;;;;;5068751;28;20539;-72
2021/04/02 00:58:41;;;;;;;1.35;0.50;;;31.90;50.20;;;;;;5084519;28;20101;-72
2021/04/02 01:01:10;;;;;;;4.85;1.10;;;32.20;51.50;;;;;;5070331;28;20063;-70
2021/04/02 01:03:42;;;;;;;1.67;0.75;;;32.70;50.40;;;;;;5075138;28;20473;-70
2021/04/02 01:06:20;;;;;;;3.63;1.08;;;32.70;49.50;;;;;;5071222;28;20032;-72
2021/04/02 01:08:47;;;;;;;2.33;0.60;;;32.70;48.00;;;;;;5078185;28;20395;-72
2021/04/02 01:11:20;;;;;;;2.63;1.00;;;32.50;48.90;;;;;;5071321;28;20367;-72
2021/04/02 01:13:55;;;;;;;1.55;0.70;;;32.70;48.70;;;;;;5078025;28;20116;-71
2021/04/02 01:16:30;;;;;;;4.43;1.23;;;32.50;51.30;;;;;;5071021;28;20142;-71
2021/04/02 01:19:06;;;;;;;2.60;0.95;;;32.40;50.90;;;;;;5077084;28;20327;-71
2021/04/02 01:21:48;;;;;;;2.13;0.70;;;32.30;52.20;;;;;;5077209;28;20059;-71
2021/04/02 01:24:33;;;;;;;3.55;0.60;;;32.50;50.00;;;;;;5077287;28;20147;-68
2021/04/02 01:27:26;;;;;;;4.07;0.80;;;32.50;50.70;;;;;;5072790;28;20021;-70
2021/04/02 01:30:10;;;;;;;2.15;0.63;;;32.20;50.40;;;;;;5075137;28;20090;-70
2021/04/02 01:32:41;;;;;;;3.08;1.35;;;31.80;49.80;;;;;;5079248;28;20028;-70
2021/04/02 01:35:26;;;;;;;3.50;0.70;;;31.00;52.20;;;;;;5078569;28;20115;-71
2021/04/02 01:38:06;;;;;;;2.95;0.95;;;31.00;52.80;;;;;;5076894;28;20384;-71
2021/04/02 01:40:38;;;;;;;3.67;0.88;;;31.40;49.70;;;;;;5074367;28;20070;-70
2021/04/02 01:43:13;;;;;;;1.80;0.70;;;31.90;50.60;;;;;;5072619;28;20208;-72
2021/04/02 01:45:42;;;;;;;4.80;0.95;;;32.50;48.10;;;;;;5062012;28;20063;-70
2021/04/02 01:48:11;;;;;;;7.80;1.35;;;32.50;48.10;;;;;;5068451;28;20378;-70
2021/04/02 01:50:42;;;;;;;4.15;1.00;;;32.40;46.80;;;;;;5073845;28;20055;-69
2021/04/02 01:53:11;;;;;;;5.97;1.00;;;32.30;48.70;;;;;;5074866;28;20601;-71
2021/04/02 01:55:39;;;;;;;6.93;1.10;;;31.40;49.20;;;;;;5067495;28;20021;-71
2021/04/02 01:58:09;;;;;;;5.25;1.60;;;31.40;49.80;;;;;;5080521;28;20041;-69
2021/04/02 02:00:42;;;;;;;10.38;1.60;;;30.60;48.80;;;;;;5072461;28;20074;-72
2021/04/02 02:03:11;;;;;;;3.47;1.30;;;30.80;49.80;;;;;;5067324;28;20123;-71
2021/04/02 02:05:39;;;;;;;3.85;1.17;;;30.70;51.70;;;;;;5066234;28;20024;-69
2021/04/02 02:08:08;;;;;;;4.07;1.60;;;30.00;51.60;;;;;;5074877;28;20032;-70
2021/04/02 02:10:36;;;;;;;5.30;2.08;;;30.50;52.20;;;;;;5069893;28;20025;-68
2021/04/02 02:13:05;;;;;;;4.45;1.73;;;29.70;51.60;;;;;;5080226;28;20027;-72
2021/04/02 02:15:37;;;;;;;4.88;1.70;;;29.40;53.70;;;;;;5075171;28;20151;-72
2021/04/02 02:18:09;;;;;;;3.28;1.50;;;29.70;52.30;;;;;;5074021;28;20077;-72
2021/04/02 02:20:40;;;;;;;3.78;2.00;;;30.50;51.40;;;;;;5073981;28;20024;-71
2021/04/02 02:23:10;;;;;;;3.25;1.15;;;30.90;49.00;;;;;;5075438;28;20521;-69
2021/04/02 02:25:37;;;;;;;6.05;1.33;;;30.80;51.90;;;;;;5068593;28;20040;-73
2021/04/02 02:28:06;;;;;;;7.50;2.40;;;31.10;49.30;;;;;;5070026;28;20028;-72
2021/04/02 02:30:35;;;;;;;8.25;2.17;;;31.70;48.70;;;;;;5066004;28;20044;-72
2021/04/02 02:33:03;;;;;;;3.42;1.60;;;31.70;46.70;;;;;;5072228;28;20504;-72
2021/04/02 02:35:31;;;;;;;5.55;1.77;;;32.00;47.30;;;;;;5067801;28;20110;-71
2021/04/02 02:38:01;;;;;;;4.82;1.85;;;32.40;46.80;;;;;;5073026;28;20033;-71
2021/04/02 02:40:32;;;;;;;3.63;1.35;;;32.50;45.10;;;;;;5079689;28;20036;-71
2021/04/02 02:43:01;;;;;;;4.28;1.90;;;32.50;45.60;;;;;;5077235;28;20045;-72
2021/04/02 02:45:30;;;;;;;6.32;1.77;;;32.80;44.80;;;;;;5071345;28;20036;-71
2021/04/02 02:47:57;;;;;;;7.13;2.22;;;32.80;45.70;;;;;;5073111;28;20412;-72
2021/04/02 02:50:30;;;;;;;4.05;1.60;;;32.70;44.80;;;;;;5070771;28;20113;-71
2021/04/02 02:52:59;;;;;;;2.83;1.65;;;32.80;44.40;;;;;;5072332;28;20020;-70
2021/04/02 02:55:29;;;;;;;3.10;1.70;;;32.80;44.40;;;;;;5062932;28;20030;-71
2021/04/02 02:57:58;;;;;;;2.78;1.40;;;33.00;44.10;;;;;;5073519;28;20027;-71
2021/04/02 03:00:32;;;;;;;3.60;1.88;;;32.80;43.50;;;;;;5073420;28;20514;-71
2021/04/02 03:03:02;;;;;;;3.28;1.77;;;32.80;44.70;;;;;;5067195;28;20048;-71
2021/04/02 03:05:31;;;;;;;3.60;1.58;;;30.80;45.20;;;;;;5066329;28;20440;-72
2021/04/02 03:08:03;;;;;;;4.57;1.52;;;29.50;48.80;;;;;;5066460;28;20051;-69
2021/04/02 03:10:34;;;;;;;6.28;1.25;;;30.30;50.60;;;;;;5066332;28;20024;-69
2021/04/02 03:13:03;;;;;;;5.80;1.77;;;31.20;48.10;;;;;;5076576;28;20024;-68
2021/04/02 03:15:32;;;;;;;3.97;1.70;;;31.80;46.40;;;;;;5073624;28;20036;-68
2021/04/02 03:18:09;;;;;;;3.30;1.40;;;32.30;49.40;;;;;;5068904;28;20197;-72
2021/04/02 03:20:38;;;;;;;2.65;1.38;;;32.90;44.60;;;;;;5066060;28;20037;-70
2021/04/02 03:23:08;;;;;;;12.25;1.55;;;32.00;43.50;;;;;;5070598;28;20110;-70
2021/04/02 03:25:38;;;;;;;4.68;1.52;;;31.60;45.50;;;;;;5071479;28;21954;-71
2021/04/02 03:28:06;;;;;;;6.82;1.65;;;31.40;47.70;;;;;;5070911;28;20075;-69
2021/04/02 03:30:34;;;;;;;4.82;1.65;;;31.30;46.10;;;;;;5075906;28;20059;-71
2021/04/02 03:33:10;;;;;;;3.33;1.35;;;31.20;45.50;;;;;;5078792;28;20020;-71
2021/04/02 03:35:38;;;;;;;5.90;1.50;;;31.50;45.60;;;;;;5065561;28;20038;-72
2021/04/02 03:38:09;;;;;;;2.85;1.42;;;31.60;43.50;;;;;;5068423;28;20176;-70
2021/04/02 03:40:37;;;;;;;9.02;2.35;;;31.60;46.40;;;;;;5069620;28;20044;-71
2021/04/02 03:43:06;;;;;;;3.05;1.63;;;31.70;45.20;;;;;;5069789;28;20028;-71
2021/04/02 03:45:35;;;;;;;3.80;2.17;;;31.10;45.60;;;;;;5069804;28;20032;-68
2021/04/02 03:48:04;;;;;;;4.13;2.20;;;30.70;47.40;;;;;;5074601;28;20056;-71
2021/04/02 03:50:38;;;;;;;2.95;1.60;;;30.90;48.10;;;;;;5065625;28;20159;-68
2021/04/02 03:53:11;;;;;;;6.07;2.30;;;31.30;45.90;;;;;;5073645;28;20462;-71
2021/04/02 03:55:42;;;;;;;2.28;1.45;;;31.40;44.70;;;;;;5073357;28;20069;-72
2021/04/02 03:58:12;;;;;;;3.10;1.45;;;31.30;45.10;;;;;;5076916;28;20052;-72
2021/04/02 04:01:10;;;;;;;3.00;1.00;;;31.50;45.70;;;;;;5065525;28;20058;-69
2021/04/02 04:03:41;;;;;;;4.72;1.13;;;31.20;45.40;;;;;;5072345;28;20697;-72
2021/04/02 04:06:16;;;;;;;3.22;1.50;;;30.90;45.20;;;;;;5071688;28;20028;-70
2021/04/02 04:08:53;;;;;;;2.15;0.77;;;30.50;45.30;;;;;;5077979;28;20036;-71
2021/04/02 04:11:24;;;;;;;4.25;0.90;;;30.80;48.20;;;;;;5079620;28;20056;-72
2021/04/02 04:13:53;;;;;;;3.35;1.38;;;30.80;45.70;;;;;;5080448;28;20032;-71
2021/04/02 04:16:26;;;;;;;2.58;1.30;;;30.70;47.60;;;;;;5071435;28;20040;-72
2021/04/02 04:18:57;;;;;;;3.40;1.20;;;31.10;47.20;;;;;;5073171;28;20061;-71
2021/04/02 04:21:30;;;;;;;2.05;1.30;;;31.10;46.10;;;;;;5075406;28;20081;-71
2021/04/02 04:24:00;;;;;;;3.55;1.00;;;31.00;46.00;;;;;;5069551;28;20043;-70
2021/04/02 04:26:30;;;;;;;1.63;1.10;;;31.30;47.00;;;;;;5085424;28;20273;-71
2021/04/02 04:28:59;;;;;;;1.92;1.02;;;31.10;45.30;;;;;;5074441;28;20360;-71
2021/04/02 04:31:28;;;;;;;6.85;1.63;;;30.70;46.30;;;;;;5080207;28;20533;-71
2021/04/02 04:33:59;;;;;;;4.35;1.80;;;30.90;46.00;;;;;;5073587;28;20035;-70
2021/04/02 04:36:27;;;;;;;3.97;1.90;;;31.20;46.10;;;;;;5079926;28;20119;-70
2021/04/02 04:38:56;;;;;;;3.47;1.33;;;31.30;46.70;;;;;;5067274;28;20055;-71
2021/04/02 04:41:26;;;;;;;3.72;0.98;;;31.50;44.70;;;;;;5070879;28;20028;-70
2021/04/02 04:43:56;;;;;;;1.63;0.80;;;31.50;42.80;;;;;;5076623;28;20474;-69
2021/04/02 04:46:24;;;;;;;3.15;1.05;;;30.70;44.70;;;;;;5073084;28;20115;-70
2021/04/02 04:48:52;;;;;;;2.55;1.38;;;30.20;45.60;;;;;;5077698;28;20119;-71
2021/04/02 04:51:22;;;;;;;5.10;1.25;;;29.70;46.50;;;;;;5070538;28;20033;-69
2021/04/02 04:53:53;;;;;;;3.97;0.80;;;29.90;46.40;;;;;;5068646;28;20029;-70
2021/04/02 04:56:23;;;;;;;4.25;1.38;;;30.30;46.20;;;;;;5075079;28;20033;-71
2021/04/02 04:58:54;;;;;;;4.28;1.27;;;30.60;46.10;;;;;;5077046;28;20099;-69
2021/04/02 05:01:25;;;;;;;5.60;1.00;;;30.80;46.30;;;;;;5071431;28;20035;-70
2021/04/02 05:03:55;;;;;;;2.72;0.63;;;30.90;45.50;;;;;;5069798;28;20045;-69
2021/04/02 05:06:24;;;;;;;2.47;0.77;;;30.60;44.40;;;;;;5075930;28;20032;-70
2021/04/02 05:08:54;;;;;;;1.13;0.82;;;30.50;46.30;;;;;;5072590;28;20489;-69
2021/04/02 05:11:25;;;;;;;2.45;1.02;;;30.40;45.10;;;;;;5072236;28;20040;-70
2021/04/02 05:13:54;;;;;;;3.05;1.00;;;30.50;44.70;;;;;;5070805;28;20096;-69
2021/04/02 05:16:23;;;;;;;2.35;0.80;;;30.50;44.80;;;;;;5074452;28;20148;-69
2021/04/02 05:18:52;;;;;;;4.13;1.02;;;30.40;45.00;;;;;;5070343;28;20020;-70
2021/04/02 05:21:20;;;;;;;1.33;0.60;;;30.50;45.40;;;;;;5079915;28;20086;-70
2021/04/02 05:23:48;;;;;;;2.80;1.10;;;30.80;46.30;;;;;;5071790;28;20032;-70
2021/04/02 05:26:16;;;;;;;2.75;1.48;;;30.70;46.50;;;;;;5072191;28;20105;-70
2021/04/02 05:28:44;;;;;;;3.70;2.22;;;30.60;44.30;;;;;;5067248;28;20028;-68
2021/04/02 05:31:12;;;;;;;4.57;2.15;;;30.50;46.80;;;;;;5071351;28;20127;-70
2021/04/02 05:33:40;;;;;;;3.58;2.38;;;30.40;47.00;;;;;;5067044;28;20033;-69
2021/04/02 05:36:07;;;;;;;3.47;1.52;;;30.50;45.60;;;;;;5071269;28;20088;-68
2021/04/02 05:38:35;;;;;;;4.97;2.55;;;30.20;45.90;;;;;;5073064;28;20032;-69
2021/04/02 05:41:08;;;;;;;3.80;2.10;;;30.00;46.00;;;;;;5074742;28;20021;-69
2021/04/02 05:43:53;;;;;;;4.90;2.47;;;30.00;46.30;;;;;;5072382;28;20559;-70
2021/04/02 05:46:24;;;;;;;4.53;2.70;;;30.00;46.20;;;;;;5070965;28;20028;-69
2021/04/02 05:49:04;;;;;;;4.60;1.98;;;29.90;46.20;;;;;;5070370;28;20498;-69
2021/04/02 05:51:32;;;;;;;3.35;2.03;;;29.80;46.80;;;;;;5072972;28;20036;-69
2021/04/02 05:54:02;;;;;;;3.65;1.23;;;29.70;46.80;;;;;;5066109;28;20051;-69
2021/04/02 05:56:29;;;;;;;2.45;1.20;;;29.50;45.90;;;;;;5069069;28;20036;-68
2021/04/02 05:58:57;;;;;;;2.65;1.33;;;29.60;47.20;;;;;;5066578;28;20111;-70
2021/04/02 06:01:25;;;;;;;1.67;0.98;;;29.50;48.00;;;;;;5070136;28;20116;-71
2021/04/02 06:03:54;;;;;;;1.92;1.20;;;29.50;48.90;;;;;;5071611;28;20028;-69
2021/04/02 06:06:22;;;;;;;2.78;1.27;;;29.40;49.50;;;;;;5076217;28;20024;-69
2021/04/02 06:08:51;;;;;;;2.58;1.20;;;29.30;50.80;;;;;;5074286;28;20036;-69
2021/04/02 06:11:18;;;;;;;1.95;1.00;;;29.00;51.60;;;;;;5073494;28;20020;-70
2021/04/02 06:13:47;;;;;;;3.85;1.25;;;28.80;52.60;;;;;;5072634;28;20025;-70
2021/04/02 06:16:14;;;;;;;2.50;1.23;;;28.70;53.80;;;;;;5068664;28;20032;-69
2021/04/02 06:18:42;;;;;;;2.60;1.20;;;28.50;53.60;;;;;;5065530;28;20390;-71
2021/04/02 06:21:10;;;;;;;3.72;1.98;;;28.50;54.40;;;;;;5062348;28;20119;-71
2021/04/02 06:23:38;;;;;;;3.92;1.70;;;28.40;54.80;;;;;;5069945;28;20028;-70
2021/04/02 06:26:13;;;;;;;3.05;1.30;;;28.40;55.60;;;;;;5070242;28;20482;-71
2021/04/02 06:28:41;;;;;;;5.75;1.38;;;28.30;55.30;;;;;;5070850;28;20124;-72
2021/04/02 06:31:19;;;;;;;4.03;1.20;;;28.20;55.20;;;;;;5070455;28;20403;-71
2021/04/02 06:33:47;;;;;;;2.80;1.10;;;28.10;55.90;;;;;;5065893;28;20028;-71
2021/04/02 06:36:16;;;;;;;5.03;1.48;;;28.10;55.60;;;;;;5075914;28;20505;-69
2021/04/02 06:38:46;;;;;;;3.65;1.75;;;28.00;56.10;;;;;;5077457;28;20374;-70
2021/04/02 06:41:15;;;;;;;2.53;1.10;;;27.90;56.50;;;;;;5075066;28;20063;-71
2021/04/02 06:43:50;;;;;;;2.97;1.27;;;27.90;57.00;;;;;;5074598;28;20097;-69
2021/04/02 06:46:36;;;;;;;7.72;4.45;;;27.70;57.00;;;;;;5077786;28;20028;-71
2021/04/02 06:49:20;;;;;;;3.60;3.22;;;27.60;58.10;;;;;;5068703;28;20064;-70
2021/04/02 06:51:49;;;;;;;3.33;1.90;;;27.60;57.60;;;;;;5078498;28;20492;-70
2021/04/02 06:54:18;;;;;;;8.60;4.50;;;27.40;58.00;;;;;;5070698;28;20117;-70
2021/04/02 06:57:05;;;;;;;11.88;8.07;;;27.30;58.60;;;;;;5070891;28;20035;-70
2021/04/02 06:59:34;;;;;;;20.98;10.75;;;27.10;59.20;;;;;;5076728;28;20031;-71
2021/04/02 07:02:03;;;;;;;53.08;24.50;;;27.00;59.70;;;;;;5071484;28;20035;-70
2021/04/02 07:04:35;;;;;;;19.73;13.30;;;27.00;60.00;;;;;;5068250;28;20028;-70
2021/04/02 07:07:10;;;;;;;15.15;9.45;;;26.80;61.00;;;;;;5074987;28;20033;-71
2021/04/02 07:09:41;;;;;;;10.65;7.63;;;26.70;61.60;;;;;;5072462;28;20043;-71
2021/04/02 07:12:09;;;;;;;8.07;4.85;;;26.60;62.00;;;;;;5075642;28;20084;-70
2021/04/02 07:14:38;;;;;;;6.47;3.72;;;26.50;62.20;;;;;;5066426;28;20039;-70
2021/04/02 07:17:06;;;;;;;7.93;3.28;;;26.50;62.50;;;;;;5073030;28;20745;-69
2021/04/02 07:19:34;;;;;;;6.18;3.03;;;26.30;63.20;;;;;;5070846;28;20554;-69
2021/04/02 07:22:05;;;;;;;6.28;2.45;;;26.20;63.90;;;;;;5067114;28;20384;-69
2021/04/02 07:24:34;;;;;;;2.70;2.10;;;26.00;64.70;;;;;;5071210;28;20057;-70
2021/04/02 07:27:01;;;;;;;3.47;1.63;;;25.90;65.00;;;;;;5075910;28;20035;-72
2021/04/02 07:29:29;;;;;;;1.75;0.90;;;25.90;65.50;;;;;;5072885;28;20489;-70
2021/04/02 07:31:57;;;;;;;1.52;0.88;;;25.70;65.90;;;;;;5072030;28;20032;-69
2021/04/02 07:34:26;;;;;;;3.63;1.00;;;25.60;66.60;;;;;;5074552;28;20021;-69
2021/04/02 07:36:56;;;;;;;3.70;1.42;;;25.60;66.90;;;;;;5069879;28;20116;-68
2021/04/02 07:39:24;;;;;;;2.97;1.15;;;25.50;67.20;;;;;;5068511;28;20041;-69
2021/04/02 07:41:53;;;;;;;4.95;1.77;;;25.50;67.80;;;;;;5078255;28;20112;-69
2021/04/02 07:44:20;;;;;;;2.10;1.13;;;25.30;68.20;;;;;;5069258;28;20127;-68
2021/04/02 07:47:08;;;;;;;3.00;1.17;;;25.30;68.70;;;;;;5074450;28;20078;-68
2021/04/02 07:49:57;;;;;;;3.42;1.20;;;25.20;69.50;;;;;;5071067;28;20078;-69
2021/04/02 07:52:39;;;;;;;1.67;1.08;;;25.10;70.00;;;;;;5065761;28;20064;-70
2021/04/02 07:55:18;;;;;;;3.40;1.58;;;25.00;70.40;;;;;;5066816;28;20081;-68
2021/04/02 07:57:53;;;;;;;3.78;1.45;;;24.90;70.60;;;;;;5076047;28;20036;-68
2021/04/02 08:00:23;;;;;;;2.55;1.17;;;24.80;70.90;;;;;;5069231;28;20117;-68
2021/04/02 08:03:17;;;;;;;1.80;0.93;;;24.90;71.50;;;;;;5072017;28;20469;-68
2021/04/02 08:06:02;;;;;;;2.30;1.63;;;24.90;71.80;;;;;;5078914;28;20123;-68
2021/04/02 08:08:46;;;;;;;4.93;1.20;;;24.70;71.90;;;;;;5056550;28;20032;-68
2021/04/02 08:11:27;;;;;;;5.10;1.65;;;24.70;71.90;;;;;;5071541;28;20036;-68
2021/04/02 08:13:57;;;;;;;2.70;1.20;;;24.80;72.00;;;;;;5071545;28;20021;-69
2021/04/02 08:16:34;;;;;;;2.72;1.33;;;24.70;72.30;;;;;;5076451;28;20055;-69
2021/04/02 08:19:12;;;;;;;4.68;1.55;;;24.70;72.30;;;;;;5064763;28;20327;-69
2021/04/02 08:21:50;;;;;;;1.65;1.23;;;24.60;72.60;;;;;;5072797;28;20031;-68
2021/04/02 08:24:21;;;;;;;5.32;2.25;;;24.50;72.90;;;;;;5065833;28;20507;-69
2021/04/02 08:26:49;;;;;;;4.60;2.15;;;24.50;73.00;;;;;;5066891;28;20028;-69
2021/04/02 08:29:19;;;;;;;6.60;3.63;;;24.40;73.20;;;;;;5067421;28;20378;-69
2021/04/02 08:31:52;;;;;;;9.10;5.68;;;24.40;73.70;;;;;;5070885;28;20101;-69
2021/04/02 08:34:22;;;;;;;3.75;2.58;;;24.30;73.70;;;;;;5076904;28;20041;-68
2021/04/02 08:36:52;;;;;;;2.17;1.13;;;24.20;74.10;;;;;;5075491;28;20039;-69
2021/04/02 08:39:24;;;;;;;2.95;0.70;;;24.20;74.20;;;;;;5071020;28;20105;-69
2021/04/02 08:42:05;;;;;;;2.70;0.73;;;24.00;74.80;;;;;;5071295;28;20032;-68
2021/04/02 08:44:44;;;;;;;5.63;1.58;;;24.00;75.00;;;;;;5080244;28;20039;-68
2021/04/02 08:47:14;;;;;;;3.38;1.33;;;23.80;75.60;;;;;;5075493;28;20024;-68
2021/04/02 08:49:52;;;;;;;3.72;1.38;;;23.70;75.90;;;;;;5073108;28;20043;-68
2021/04/02 08:52:22;;;;;;;4.57;1.00;;;23.70;76.10;;;;;;5073415;28;20029;-70
2021/04/02 08:54:55;;;;;;;2.72;1.15;;;23.60;76.60;;;;;;5075476;28;20039;-69
2021/04/02 08:57:25;;;;;;;3.72;0.90;;;23.50;77.10;;;;;;5080953;28;20027;-70
2021/04/02 08:59:54;;;;;;;4.55;1.10;;;23.50;77.30;;;;;;5070531;28;20506;-69
2021/04/02 09:02:25;;;;;;;2.28;0.90;;;23.40;77.70;;;;;;5064753;28;20040;-69
2021/04/02 09:04:53;;;;;;;2.28;1.00;;;23.30;77.80;;;;;;5069897;28;20042;-69
2021/04/02 09:07:21;;;;;;;4.10;1.10;;;23.30;78.00;;;;;;5075433;28;20029;-69
2021/04/02 09:09:49;;;;;;;5.25;1.50;;;23.30;78.00;;;;;;5078519;28;20036;-70
2021/04/02 09:12:20;;;;;;;8.88;3.58;;;23.20;78.40;;;;;;5067057;28;20036;-70
2021/04/02 09:14:50;;;;;;;10.07;3.22;;;23.20;78.70;;;;;;5067081;28;20029;-69
2021/04/02 09:17:22;;;;;;;9.98;2.60;;;23.10;79.10;;;;;;5079061;28;20111;-70
2021/04/02 09:19:51;;;;;;;6.32;2.05;;;23.10;79.20;;;;;;5075314;28;20074;-68
2021/04/02 09:22:19;;;;;;;6.50;1.88;;;23.10;79.30;;;;;;5080029;28;20028;-69
2021/04/02 09:24:48;;;;;;;5.72;2.22;;;23.10;79.30;;;;;;5073046;28;20081;-69
2021/04/02 09:27:22;;;;;;;3.25;1.25;;;23.00;79.60;;;;;;5069635;28;20082;-68
2021/04/02 09:29:58;;;;;;;4.95;1.63;;;22.90;80.10;;;;;;5059119;28;20032;-68
2021/04/02 09:32:29;;;;;;;3.63;1.30;;;22.90;80.20;;;;;;5065495;28;20037;-69
2021/04/02 09:34:58;;;;;;;4.43;1.02;;;22.80;80.40;;;;;;5074843;28;20085;-68
2021/04/02 09:37:27;;;;;;;2.13;1.00;;;22.80;80.60;;;;;;5076528;28;20416;-68
2021/04/02 09:40:06;;;;;;;4.97;1.30;;;22.80;80.40;;;;;;5070444;28;20031;-68
2021/04/02 09:42:36;;;;;;;3.65;1.52;;;22.80;80.70;;;;;;5073378;28;20487;-67
2021/04/02 09:45:10;;;;;;;3.92;0.93;;;22.80;80.60;;;;;;5061915;28;20420;-68
2021/04/02 09:47:45;;;;;;;2.25;0.90;;;22.70;80.90;;;;;;5073711;28;20032;-69
2021/04/02 09:50:15;;;;;;;1.80;0.98;;;22.60;81.40;;;;;;5066950;28;20068;-68
2021/04/02 09:52:44;;;;;;;3.00;0.77;;;22.50;82.20;;;;;;5079407;28;20026;-69
2021/04/02 09:55:12;;;;;;;3.75;1.23;;;22.30;82.80;;;;;;5072344;28;20020;-69
2021/04/02 09:57:40;;;;;;;1.70;1.08;;;22.10;83.10;;;;;;5081369;28;20052;-68
2021/04/02 10:00:13;;;;;;;3.33;0.80;;;22.00;83.80;;;;;;5068129;28;20519;-71
2021/04/02 10:02:40;;;;;;;3.47;0.90;;;21.80;84.90;;;;;;5070667;28;20102;-70
2021/04/02 10:05:09;;;;;;;3.50;1.75;;;21.70;85.90;;;;;;5064977;28;20024;-69
2021/04/02 10:07:37;;;;;;;3.35;1.58;;;21.60;86.40;;;;;;5062470;28;20301;-68
2021/04/02 10:10:07;;;;;;;4.47;2.67;;;21.50;86.70;;;;;;5067212;28;20516;-68
2021/04/02 10:12:35;;;;;;;3.67;2.30;;;21.40;87.20;;;;;;5075967;28;20024;-68
2021/04/02 10:15:04;;;;;;;6.78;3.03;;;21.30;87.60;;;;;;5069804;28;20440;-68
2021/04/02 10:17:32;;;;;;;4.60;1.92;;;21.20;87.70;;;;;;5063298;28;20032;-68
2021/04/02 10:19:59;;;;;;;2.25;1.20;;;21.10;88.30;;;;;;5061043;28;20528;-69
2021/04/02 10:22:27;;;;;;;2.78;1.15;;;21.10;88.40;;;;;;5067003;28;20025;-69
2021/04/02 10:24:54;;;;;;;4.65;1.23;;;21.10;88.30;;;;;;5068006;28;20028;-70
2021/04/02 10:27:22;;;;;;;4.95;1.40;;;21.00;88.70;;;;;;5079196;28;20043;-68
2021/04/02 10:29:49;;;;;;;1.63;1.10;;;21.00;89.20;;;;;;5068752;28;20094;-68
2021/04/02 10:32:17;;;;;;;3.67;0.88;;;21.00;89.30;;;;;;5071236;28;20453;-71
2021/04/02 10:34:44;;;;;;;2.40;1.13;;;20.90;89.70;;;;;;5067107;28;20031;-69
2021/04/02 10:37:13;;;;;;;3.55;1.25;;;20.90;89.80;;;;;;5080201;28;20347;-69
2021/04/02 10:39:40;;;;;;;2.78;1.30;;;20.90;89.60;;;;;;5066950;28;20033;-72
2021/04/02 10:42:08;;;;;;;2.70;1.33;;;20.90;89.40;;;;;;5058698;28;20101;-70
2021/04/02 10:44:35;;;;;;;3.67;1.10;;;20.80;90.10;;;;;;5065531;28;20082;-74
2021/04/02 10:47:02;;;;;;;1.88;1.02;;;20.80;89.80;;;;;;5072844;28;20040;-70
2021/04/02 10:49:30;;;;;;;2.53;0.85;;;20.70;90.00;;;;;;5068004;28;20040;-72
2021/04/02 10:51:58;;;;;;;2.92;1.30;;;20.70;90.00;;;;;;5065360;28;20031;-71
2021/04/02 10:54:25;;;;;;;2.88;1.27;;;20.60;90.00;;;;;;5053372;28;20044;-71
2021/04/02 10:56:53;;;;;;;1.95;1.10;;;20.60;90.10;;;;;;5070063;28;20398;-74
2021/04/02 10:59:20;;;;;;;4.32;0.95;;;20.50;90.10;;;;;;5066688;28;20037;-73
2021/04/02 11:01:48;;;;;;;3.05;1.35;;;20.50;90.20;;;;;;5066041;28;20347;-71
2021/04/02 11:04:15;;;;;;;2.45;1.25;;;20.40;90.50;;;;;;5073796;28;20032;-72
2021/04/02 11:06:42;;;;;;;3.90;1.60;;;20.40;90.50;;;;;;5081686;28;20032;-74
2021/04/02 11:09:10;;;;;;;4.18;1.38;;;20.40;90.30;;;;;;5076933;28;20047;-73
2021/04/02 11:11:37;;;;;;;2.92;2.40;;;20.30;90.30;;;;;;5078875;28;20035;-74
2021/04/02 11:14:05;;;;;;;5.38;3.10;;;20.30;90.30;;;;;;5076433;28;20117;-72
2021/04/02 11:16:32;;;;;;;5.03;1.95;;;20.30;90.50;;;;;;5077482;28;20030;-73
2021/04/02 11:19:00;;;;;;;5.22;1.75;;;20.20;90.40;;;;;;5076530;28;20394;-73
2021/04/02 11:21:27;;;;;;;2.92;1.58;;;20.10;90.30;;;;;;5067984;28;20035;-71
2021/04/02 11:23:54;;;;;;;3.60;1.58;;;20.10;90.30;;;;;;5075523;28;20025;-74
2021/04/02 11:26:24;;;;;;;2.47;1.52;;;20.00;90.40;;;;;;5074089;28;20493;-71
2021/04/02 11:28:51;;;;;;;3.40;1.67;;;20.00;90.30;;;;;;5071102;28;20568;-71
2021/04/02 11:31:21;;;;;;;3.20;1.73;;;20.00;90.50;;;;;;5066168;28;20024;-72
2021/04/02 11:33:49;;;;;;;3.33;1.38;;;19.90;90.70;;;;;;5073308;28;20084;-73
2021/04/02 11:36:17;;;;;;;5.63;2.08;;;19.80;90.70;;;;;;5068800;28;20031;-71
2021/04/02 11:38:44;;;;;;;3.42;2.00;;;19.80;90.80;;;;;;5071479;28;20099;-70
2021/04/02 11:41:12;;;;;;;3.22;1.55;;;19.70;90.60;;;;;;5072891;28;20039;-72
2021/04/02 11:43:39;;;;;;;3.85;1.98;;;19.70;90.70;;;;;;5073461;28;20023;-72
2021/04/02 11:46:07;;;;;;;3.53;2.08;;;19.70;90.90;;;;;;5068620;28;20328;-69
2021/04/02 11:48:34;;;;;;;6.82;2.40;;;19.60;90.90;;;;;;5080556;28;20074;-72
2021/04/02 11:51:02;;;;;;;4.47;1.80;;;19.60;91.10;;;;;;5069966;28;20035;-74
2021/04/02 11:53:29;;;;;;;3.90;1.90;;;19.60;91.10;;;;;;5069255;28;20646;-72
2021/04/02 11:55:57;;;;;;;3.08;1.40;;;19.50;91.20;;;;;;5071926;28;20071;-73
2021/04/02 11:58:24;;;;;;;5.63;1.75;;;19.50;91.50;;;;;;5065862;28;20080;-73
2021/04/02 12:00:52;;;;;;;3.78;2.47;;;19.50;91.40;;;;;;5064096;28;20024;-73
2021/04/02 12:03:20;;;;;;;5.38;2.28;;;19.50;91.70;;;;;;5070380;28;20529;-72
2021/04/02 12:05:47;;;;;;;3.28;1.73;;;19.40;91.50;;;;;;5066943;28;20029;-73
2021/04/02 12:08:14;;;;;;;3.08;1.80;;;19.40;91.40;;;;;;5082106;28;20434;-72
2021/04/02 12:10:44;;;;;;;6.32;2.38;;;19.30;91.10;;;;;;5072198;28;20094;-73
2021/04/02 12:13:11;;;;;;;4.60;1.70;;;19.30;91.30;;;;;;5076995;28;20028;-74
2021/04/02 12:15:39;;;;;;;2.13;1.70;;;19.20;91.50;;;;;;5075466;28;20029;-72
2021/04/02 12:18:07;;;;;;;3.10;1.50;;;19.20;91.60;;;;;;5072787;28;20039;-70
2021/04/02 12:20:34;;;;;;;4.32;2.00;;;19.10;91.80;;;;;;5071522;28;20056;-72
2021/04/02 12:23:02;;;;;;;4.22;2.22;;;19.10;91.60;;;;;;5080420;28;20041;-70
2021/04/02 12:25:29;;;;;;;1.92;1.60;;;19.10;91.50;;;;;;5069254;28;20024;-70
2021/04/02 12:27:57;;;;;;;2.45;1.80;;;19.00;91.60;;;;;;5077552;28;20023;-72
2021/04/02 12:30:25;;;;;;;2.72;1.90;;;19.00;91.50;;;;;;5066227;28;20497;-72
2021/04/02 12:32:52;;;;;;;3.05;2.00;;;19.00;91.60;;;;;;5069402;28;20016;-72
2021/04/02 12:35:20;;;;;;;6.15;2.80;;;18.90;91.80;;;;;;5076964;28;20861;-73
2021/04/02 12:37:47;;;;;;;6.55;4.10;;;18.90;92.10;;;;;;5084923;28;20073;-72
2021/04/02 12:40:18;;;;;;;6.57;4.50;;;18.90;92.30;;;;;;5078553;28;20025;-72
2021/04/02 12:42:46;;;;;;;4.13;1.80;;;18.80;92.30;;;;;;5076496;28;20099;-72
2021/04/02 12:45:14;;;;;;;5.28;2.05;;;18.80;92.10;;;;;;5082417;28;20025;-72
2021/04/02 12:47:43;;;;;;;3.75;2.10;;;18.80;92.00;;;;;;5079091;28;20253;-67
2021/04/02 12:50:18;;;;;;;4.50;2.15;;;18.70;92.30;;;;;;5073540;28;20040;-72
2021/04/02 12:52:47;;;;;;;3.58;1.63;;;18.70;92.40;;;;;;5080407;28;20051;-73
2021/04/02 12:55:20;;;;;;;5.25;1.70;;;18.60;92.20;;;;;;5078165;28;20033;-70
2021/04/02 12:57:47;;;;;;;2.17;1.67;;;18.70;92.20;;;;;;5079744;28;20017;-70
2021/04/02 13:00:18;;;;;;;3.17;1.58;;;18.60;92.20;;;;;;5078165;28;20506;-72
2021/04/02 13:02:46;;;;;;;1.80;1.50;;;18.60;91.90;;;;;;5078120;28;20035;-71